Time;durP1;ratioP1;P1;durP2;ratioP2;P2;SDS_P1;SDS_P2;PMS_P1;PMS_P2;Temp;Humidity;BMP_temperature;BMP_pressure;BME280_temperature;BME280_humidity;BME280_pressure;Samples;Min_cycle;Max_cycle;Signal;HPM_P1;HPM_P2
2021/04/21 00:01:04;;;;;;;1.45;1.35;;;11.00;62.80;;;;;;5071961;28;20024;-77
2021/04/21 00:03:31;;;;;;;2.33;1.50;;;11.00;62.80;;;;;;5071490;28;20048;-77
2021/04/21 00:05:59;;;;;;;2.00;1.67;;;11.00;62.90;;;;;;5071793;28;20063;-77
2021/04/21 00:08:27;;;;;;;1.67;1.30;;;10.90;62.90;;;;;;5073090;28;20104;-77
2021/04/21 00:10:53;;;;;;;2.08;1.60;;;10.90;63.00;;;;;;5071960;28;20040;-77
2021/04/21 00:13:21;;;;;;;1.42;1.33;;;10.90;63.00;;;;;;5072890;28;20151;-77
2021/04/21 00:15:47;;;;;;;2.28;1.88;;;10.80;63.00;;;;;;5073114;28;20119;-77
2021/04/21 00:18:14;;;;;;;3.00;2.03;;;10.80;63.10;;;;;;5072625;28;20076;-77
2021/04/21 00:20:41;;;;;;;1.48;1.38;;;10.80;63.20;;;;;;5071768;28;20025;-77
2021/04/21 00:23:10;;;;;;;1.85;1.60;;;10.70;63.30;;;;;;5072810;28;20353;-77
2021/04/21 00:25:38;;;;;;;1.73;1.63;;;10.70;63.40;;;;;;5073119;28;20025;-77
2021/04/21 00:28:05;;;;;;;2.10;1.70;;;10.60;63.40;;;;;;5071568;28;20043;-77
2021/04/21 00:30:33;;;;;;;3.05;1.92;;;10.60;63.50;;;;;;5069749;28;20469;-76
2021/04/21 00:33:00;;;;;;;2.30;2.03;;;10.50;63.60;;;;;;5052472;28;20070;-77
2021/04/21 00:35:30;;;;;;;3.65;2.17;;;10.40;63.90;;;;;;5052708;28;20028;-77
2021/04/21 00:38:07;;;;;;;2.38;2.17;;;10.30;64.70;;;;;;5085035;28;20017;-77
2021/04/21 00:40:52;;;;;;;1.73;1.63;;;10.20;64.10;;;;;;5052744;28;20041;-77
2021/04/21 00:43:23;;;;;;;4.18;2.60;;;10.10;64.10;;;;;;5051567;28;20017;-77
2021/04/21 00:45:56;;;;;;;2.38;1.88;;;10.00;64.20;;;;;;5050962;28;20102;-77
2021/04/21 00:49:01;;;;;;;2.75;2.20;;;9.90;64.40;;;;;;5052885;28;20381;-77
2021/04/21 00:51:43;;;;;;;3.92;1.85;;;9.80;64.50;;;;;;5052799;28;20021;-77
2021/04/21 00:54:19;;;;;;;3.50;2.28;;;9.70;64.60;;;;;;5052531;28;20031;-77
2021/04/21 00:57:13;;;;;;;3.10;2.10;;;9.60;64.70;;;;;;5052790;28;20078;-77
2021/04/21 00:59:58;;;;;;;2.88;2.35;;;9.60;64.70;;;;;;5052817;28;20021;-77
2021/04/21 01:02:31;;;;;;;3.63;2.58;;;9.50;64.80;;;;;;5051059;28;20031;-78
2021/04/21 01:04:58;;;;;;;3.80;2.55;;;9.40;65.00;;;;;;5052509;28;20024;-77
2021/04/21 01:07:25;;;;;;;3.45;2.50;;;9.40;65.00;;;;;;5052503;28;20033;-77
2021/04/21 01:09:54;;;;;;;4.30;2.75;;;9.30;65.20;;;;;;5051414;28;20013;-77
2021/04/21 01:12:22;;;;;;;5.05;3.30;;;9.30;65.30;;;;;;5052508;28;20033;-77
2021/04/21 01:14:51;;;;;;;4.28;2.67;;;9.20;65.40;;;;;;5052562;28;20106;-77
2021/04/21 01:17:18;;;;;;;6.47;3.70;;;9.20;65.50;;;;;;5050985;28;20084;-77
2021/04/21 01:19:58;;;;;;;7.63;4.78;;;9.10;65.60;;;;;;5052320;28;20259;-77
2021/04/21 01:22:36;;;;;;;6.20;3.50;;;9.00;65.70;;;;;;5052498;28;20114;-77
2021/04/21 01:25:07;;;;;;;4.57;3.42;;;9.00;65.90;;;;;;5054909;28;20037;-77
2021/04/21 01:27:53;;;;;;;3.65;3.05;;;8.90;65.90;;;;;;5088253;28;20033;-77
2021/04/21 01:30:21;;;;;;;5.10;2.92;;;8.90;66.00;;;;;;5055712;28;20021;-77
2021/04/21 01:32:51;;;;;;;7.45;3.20;;;8.90;66.10;;;;;;5054521;28;20024;-77
2021/04/21 01:35:20;;;;;;;4.57;2.80;;;8.90;66.10;;;;;;5054677;28;20052;-77
2021/04/21 01:37:47;;;;;;;3.83;2.50;;;8.80;66.20;;;;;;5054516;28;20392;-77
2021/04/21 01:40:20;;;;;;;4.05;3.15;;;8.80;66.30;;;;;;5054492;28;20526;-77
2021/04/21 01:42:49;;;;;;;3.30;2.53;;;8.70;66.40;;;;;;5054510;28;20428;-77
2021/04/21 01:45:19;;;;;;;3.30;2.55;;;8.70;66.50;;;;;;5055371;28;20021;-77
2021/04/21 01:47:47;;;;;;;4.55;2.90;;;8.60;66.50;;;;;;5054264;28;20052;-77
2021/04/21 01:50:14;;;;;;;4.40;3.00;;;8.60;66.60;;;;;;5054406;28;20032;-77
2021/04/21 01:52:49;;;;;;;4.15;2.90;;;8.60;66.80;;;;;;5054246;28;20017;-77
2021/04/21 01:55:20;;;;;;;4.47;3.17;;;8.60;66.90;;;;;;5055720;28;20023;-77
2021/04/21 01:57:52;;;;;;;4.93;2.90;;;8.50;67.00;;;;;;5054201;28;20025;-77
2021/04/21 02:00:37;;;;;;;3.97;2.42;;;8.50;67.10;;;;;;5055047;28;20473;-77
2021/04/21 02:03:31;;;;;;;3.25;2.80;;;8.50;67.20;;;;;;5054099;28;20098;-77
2021/04/21 02:06:36;;;;;;;3.75;2.40;;;8.40;67.10;;;;;;5055479;28;20082;-77
2021/04/21 02:09:39;;;;;;;3.75;2.78;;;8.40;67.10;;;;;;5055441;28;20523;-76
2021/04/21 02:12:20;;;;;;;4.35;2.97;;;8.30;67.20;;;;;;5053881;28;20025;-77
2021/04/21 02:15:06;;;;;;;4.63;3.40;;;8.30;67.30;;;;;;5054877;28;20040;-77
2021/04/21 02:17:49;;;;;;;5.25;3.10;;;8.30;67.50;;;;;;5054818;28;20053;-77
2021/04/21 02:20:42;;;;;;;4.93;3.35;;;8.30;67.60;;;;;;5087322;28;20473;-77
2021/04/21 02:23:17;;;;;;;4.32;3.80;;;8.30;67.70;;;;;;5053699;28;20033;-77
2021/04/21 02:26:22;;;;;;;3.47;3.17;;;8.30;67.80;;;;;;5055100;28;20024;-77
2021/04/21 02:29:01;;;;;;;5.30;4.32;;;8.30;67.80;;;;;;5053290;28;20481;-77
2021/04/21 02:31:41;;;;;;;5.40;4.20;;;8.20;67.90;;;;;;5056697;28;20099;-76
2021/04/21 02:34:33;;;;;;;6.85;3.80;;;8.20;67.90;;;;;;5053467;28;20271;-77
2021/04/21 02:37:23;;;;;;;4.75;3.58;;;8.20;68.00;;;;;;5087100;28;20028;-77
2021/04/21 02:39:58;;;;;;;5.85;4.28;;;8.30;68.00;;;;;;5054708;28;20170;-76
2021/04/21 02:42:30;;;;;;;6.18;4.10;;;8.30;68.10;;;;;;5054242;28;20545;-77
2021/04/21 02:45:05;;;;;;;7.03;4.60;;;8.30;68.10;;;;;;5054526;28;20052;-77
2021/04/21 02:47:42;;;;;;;7.03;4.85;;;8.30;68.10;;;;;;5054623;28;20416;-76
2021/04/21 02:50:14;;;;;;;6.15;4.43;;;8.30;68.20;;;;;;5054706;28;20017;-76
2021/04/21 02:53:24;;;;;;;7.13;4.57;;;8.30;68.30;;;;;;5053275;28;20028;-77
2021/04/21 02:55:57;;;;;;;6.82;5.03;;;8.40;68.40;;;;;;5069776;28;20123;-77
2021/04/21 02:58:25;;;;;;;7.38;4.32;;;8.40;68.50;;;;;;5053993;28;20025;-77
2021/04/21 03:01:04;;;;;;;6.53;4.35;;;8.40;68.50;;;;;;5054398;28;20032;-76
2021/04/21 03:03:33;;;;;;;6.97;4.15;;;8.50;68.60;;;;;;5052941;28;20464;-77
2021/04/21 03:06:16;;;;;;;5.40;4.23;;;8.50;68.60;;;;;;5052827;28;20021;-77
2021/04/21 03:08:46;;;;;;;7.38;4.72;;;8.50;68.60;;;;;;5052910;28;20025;-77
2021/04/21 03:11:26;;;;;;;5.07;3.88;;;8.50;68.70;;;;;;5052445;28;20017;-77
2021/04/21 03:14:02;;;;;;;4.93;4.10;;;8.60;68.80;;;;;;5052858;28;20104;-77
2021/04/21 03:16:32;;;;;;;5.18;4.68;;;8.50;68.80;;;;;;5052538;28;20063;-77
2021/04/21 03:19:02;;;;;;;5.10;3.85;;;8.60;69.00;;;;;;5054249;28;20021;-77
2021/04/21 03:21:29;;;;;;;5.50;4.13;;;8.50;69.00;;;;;;5052605;28;20027;-77
2021/04/21 03:24:06;;;;;;;5.57;3.80;;;8.50;69.10;;;;;;5053764;28;20036;-77
2021/04/21 03:26:34;;;;;;;5.47;3.65;;;8.50;69.20;;;;;;5052135;28;20029;-77
2021/04/21 03:29:02;;;;;;;5.50;4.10;;;8.50;69.20;;;;;;5053732;28;20013;-77
2021/04/21 03:31:33;;;;;;;5.95;4.80;;;8.50;69.30;;;;;;5052514;28;20366;-77
2021/04/21 03:34:06;;;;;;;5.93;4.03;;;8.50;69.40;;;;;;5053817;28;20036;-78
2021/04/21 03:36:33;;;;;;;6.07;4.65;;;8.50;69.40;;;;;;5053760;28;20076;-77
2021/04/21 03:38:59;;;;;;;5.28;4.22;;;8.50;69.50;;;;;;5053541;28;20021;-77
2021/04/21 03:41:25;;;;;;;6.25;4.60;;;8.50;69.50;;;;;;5051957;28;20027;-77
2021/04/21 03:43:51;;;;;;;6.18;4.28;;;8.60;69.50;;;;;;5052317;28;20376;-77
2021/04/21 03:46:18;;;;;;;5.10;4.07;;;8.60;69.50;;;;;;5051686;28;20021;-77
2021/04/21 03:48:44;;;;;;;7.95;5.82;;;8.50;69.50;;;;;;5053453;28;20453;-78
2021/04/21 03:51:13;;;;;;;5.20;4.28;;;8.50;69.70;;;;;;5053412;28;20025;-77
2021/04/21 03:53:39;;;;;;;6.68;4.07;;;8.60;69.80;;;;;;5053352;28;20374;-78
2021/04/21 03:56:09;;;;;;;5.20;4.57;;;8.60;69.80;;;;;;5051695;28;20029;-77
2021/04/21 03:58:36;;;;;;;5.82;4.00;;;8.50;69.90;;;;;;5052283;28;20028;-77
2021/04/21 04:01:06;;;;;;;6.82;4.88;;;8.50;70.00;;;;;;5053160;28;20053;-78
2021/04/21 04:03:33;;;;;;;6.47;4.53;;;8.50;70.00;;;;;;5051993;28;20043;-77
2021/04/21 04:06:11;;;;;;;5.60;4.40;;;8.40;70.10;;;;;;5051836;28;20480;-77
2021/04/21 04:08:46;;;;;;;7.32;5.22;;;8.40;70.30;;;;;;5085370;28;20033;-77
2021/04/21 04:11:15;;;;;;;4.95;4.15;;;8.30;70.40;;;;;;5085002;28;20372;-77
2021/04/21 04:13:45;;;;;;;4.97;3.50;;;8.30;70.50;;;;;;5051862;28;20048;-77
2021/04/21 04:16:12;;;;;;;4.88;3.50;;;8.20;70.40;;;;;;5052732;28;20469;-76
2021/04/21 04:18:42;;;;;;;5.75;3.80;;;8.20;70.50;;;;;;5056668;28;20515;-77
2021/04/21 04:21:11;;;;;;;4.53;3.58;;;8.20;70.60;;;;;;5051785;28;20025;-77
2021/04/21 04:23:42;;;;;;;4.95;3.60;;;8.10;70.60;;;;;;5052546;28;20017;-77
2021/04/21 04:26:08;;;;;;;5.25;3.78;;;8.20;70.70;;;;;;5053034;28;20021;-77
2021/04/21 04:28:35;;;;;;;6.60;4.65;;;8.10;70.60;;;;;;5053066;28;20021;-77
2021/04/21 04:31:06;;;;;;;10.38;7.10;;;8.10;70.80;;;;;;5052930;28;20021;-78
2021/04/21 04:33:32;;;;;;;8.32;5.72;;;8.10;71.10;;;;;;5051717;28;20477;-77
2021/04/21 04:35:59;;;;;;;7.43;5.88;;;8.00;71.20;;;;;;5052954;28;20029;-77
2021/04/21 04:38:25;;;;;;;8.90;6.22;;;8.00;71.40;;;;;;5051173;28;20029;-77
2021/04/21 04:40:53;;;;;;;8.13;5.40;;;7.90;71.40;;;;;;5052979;28;20025;-77
2021/04/21 04:43:23;;;;;;;8.73;7.05;;;7.90;71.50;;;;;;5051473;28;20142;-77
2021/04/21 04:45:59;;;;;;;7.13;5.40;;;7.80;71.60;;;;;;5051531;28;20036;-77
2021/04/21 04:48:50;;;;;;;7.32;5.40;;;7.80;71.80;;;;;;5085348;28;20059;-77
2021/04/21 04:51:18;;;;;;;6.22;5.13;;;7.70;71.80;;;;;;5048977;28;20052;-77
2021/04/21 04:53:44;;;;;;;8.30;5.97;;;7.70;72.00;;;;;;5050960;28;20021;-78
2021/04/21 04:56:11;;;;;;;8.57;6.28;;;7.60;72.00;;;;;;5052713;28;20457;-77
2021/04/21 04:58:40;;;;;;;7.93;5.30;;;7.60;72.20;;;;;;5053241;28;20032;-77
2021/04/21 05:01:07;;;;;;;6.15;4.78;;;7.60;72.20;;;;;;5056591;28;20067;-77
2021/04/21 05:03:41;;;;;;;5.90;5.03;;;7.50;72.20;;;;;;5055160;28;20566;-77
2021/04/21 05:06:10;;;;;;;5.80;4.72;;;7.50;72.30;;;;;;5055096;28;20098;-77
2021/04/21 05:08:39;;;;;;;;;;;7.50;72.30;;;;;;5056419;28;20108;-77
2021/04/21 05:11:05;;;;;;;5.00;3.50;;;7.50;72.10;;;;;;5055125;28;19996;-77
2021/04/21 05:13:45;;;;;;;5.68;3.92;;;7.50;72.10;;;;;;5055122;28;20052;-77
2021/04/21 05:16:11;;;;;;;7.18;4.32;;;7.50;72.10;;;;;;5054839;28;20073;-77
2021/04/21 05:18:46;;;;;;;6.68;5.00;;;7.60;72.10;;;;;;5056162;28;20033;-77
2021/04/21 05:21:32;;;;;;;6.57;4.50;;;7.60;72.00;;;;;;5056170;28;20045;-77
2021/04/21 05:24:18;;;;;;;6.10;4.40;;;7.70;72.00;;;;;;5056302;28;20090;-77
2021/04/21 05:27:14;;;;;;;6.13;4.50;;;7.70;72.00;;;;;;5054284;28;20405;-77
2021/04/21 05:30:08;;;;;;;5.22;4.65;;;7.80;71.90;;;;;;5056029;28;20377;-77
2021/04/21 05:32:36;;;;;;;5.18;4.50;;;7.80;71.80;;;;;;5055996;28;20029;-77
2021/04/21 05:35:21;;;;;;;6.13;5.20;;;7.90;71.80;;;;;;5055922;28;20047;-77
2021/04/21 05:38:30;;;;;;;6.85;5.30;;;8.00;71.70;;;;;;5055522;28;20507;-77
2021/04/21 05:41:23;;;;;;;6.80;5.85;;;8.00;71.80;;;;;;5053939;28;20032;-78
2021/04/21 05:44:52;;;;;;;6.45;4.75;;;8.10;71.90;;;;;;5053497;28;20036;-74
2021/04/21 05:47:48;;;;;;;6.13;4.57;;;8.10;71.80;;;;;;5036901;28;20033;-73
2021/04/21 05:50:52;;;;;;;6.88;4.95;;;8.20;71.70;;;;;;5053572;28;20037;-73
2021/04/21 05:54:03;;;;;;;6.53;4.88;;;8.30;71.50;;;;;;4997413;28;20120;-74
2021/04/21 05:56:52;;;;;;;8.00;5.85;;;8.50;71.40;;;;;;5053416;28;20054;-73
2021/04/21 05:59:36;;;;;;;8.25;7.38;;;8.50;71.30;;;;;;5053407;28;20095;-73
2021/04/21 06:02:03;;;;;;;8.45;6.20;;;8.50;71.50;;;;;;5053440;28;20116;-72
2021/04/21 06:04:29;;;;;;;7.68;5.85;;;8.50;71.60;;;;;;5053244;28;20029;-73
2021/04/21 06:07:08;;;;;;;7.28;6.03;;;8.50;71.80;;;;;;5052734;28;20051;-74
2021/04/21 06:09:34;;;;;;;8.88;7.18;;;8.60;71.80;;;;;;5036042;28;20481;-77
2021/04/21 06:12:16;;;;;;;7.75;5.65;;;8.60;71.80;;;;;;5054158;28;20037;-74
2021/04/21 06:14:44;;;;;;;7.32;6.18;;;8.70;71.60;;;;;;5055204;28;20029;-75
2021/04/21 06:17:11;;;;;;;6.75;5.40;;;8.80;71.40;;;;;;5055432;28;20055;-76
2021/04/21 06:19:37;;;;;;;6.70;5.32;;;9.00;71.40;;;;;;5055730;28;20057;-75
2021/04/21 06:22:02;;;;;;;6.70;5.45;;;9.00;71.20;;;;;;5087344;28;20500;-75
2021/04/21 06:24:29;;;;;;;6.88;5.28;;;9.20;71.10;;;;;;5055046;28;20082;-74
2021/04/21 06:27:08;;;;;;;9.38;6.75;;;9.30;70.90;;;;;;5054821;28;20116;-78
2021/04/21 06:29:34;;;;;;;7.45;5.50;;;9.40;71.30;;;;;;5053614;28;20078;-77
2021/04/21 06:32:05;;;;;;;8.77;6.15;;;9.50;70.60;;;;;;5053468;28;20489;-77
2021/04/21 06:34:30;;;;;;;8.25;6.30;;;9.60;71.20;;;;;;5058331;28;20081;-78
2021/04/21 06:36:58;;;;;;;8.68;6.90;;;9.60;70.50;;;;;;5074354;28;20434;-80
2021/04/21 06:39:25;;;;;;;7.80;6.80;;;9.70;70.60;;;;;;5074789;28;20023;-78
2021/04/21 06:41:59;;;;;;;6.93;5.45;;;9.70;70.60;;;;;;5074533;28;20198;-78
2021/04/21 06:44:32;;;;;;;7.75;5.72;;;9.80;70.50;;;;;;5074632;28;20109;-79
2021/04/21 06:46:58;;;;;;;9.52;6.00;;;9.80;70.40;;;;;;5073062;28;20055;-79
2021/04/21 06:49:24;;;;;;;8.68;6.63;;;9.90;70.30;;;;;;5091669;28;20024;-80
2021/04/21 06:51:49;;;;;;;10.50;8.20;;;10.00;70.20;;;;;;5076443;28;20538;-79
2021/04/21 06:54:20;;;;;;;10.98;8.02;;;10.10;70.20;;;;;;5073506;28;20028;-79
2021/04/21 06:56:48;;;;;;;10.18;9.05;;;10.10;70.20;;;;;;5071488;28;20373;-79
2021/04/21 06:59:19;;;;;;;9.85;8.68;;;10.10;70.30;;;;;;5073697;28;20031;-79
2021/04/21 07:01:51;;;;;;;12.15;10.02;;;10.10;70.40;;;;;;5072805;28;20028;-80
2021/04/21 07:04:18;;;;;;;10.35;7.53;;;10.20;70.50;;;;;;5090340;28;20094;-80
2021/04/21 07:06:46;;;;;;;9.70;7.65;;;10.20;70.30;;;;;;5094292;28;20043;-78
2021/04/21 07:09:19;;;;;;;8.95;7.55;;;10.30;70.30;;;;;;5086958;28;20020;-77
2021/04/21 07:11:46;;;;;;;9.95;7.25;;;10.30;70.30;;;;;;5073077;28;20068;-79
2021/04/21 07:14:18;;;;;;;10.98;8.10;;;10.30;70.20;;;;;;5071730;28;20016;-78
2021/04/21 07:16:44;;;;;;;9.98;8.75;;;10.40;70.30;;;;;;5069234;28;20036;-78
2021/04/21 07:19:12;;;;;;;10.35;8.32;;;10.40;70.20;;;;;;5068261;28;20028;-80
2021/04/21 07:21:40;;;;;;;10.80;9.38;;;10.50;70.20;;;;;;5053175;28;20032;-79
2021/04/21 07:24:08;;;;;;;12.18;10.70;;;10.60;70.10;;;;;;5053901;28;20025;-82
2021/04/21 07:26:37;;;;;;;14.88;12.70;;;10.60;70.00;;;;;;5053873;28;20021;-79
2021/04/21 07:29:05;;;;;;;14.33;12.03;;;10.60;69.90;;;;;;5053796;28;20029;-80
2021/04/21 07:31:36;;;;;;;15.98;12.38;;;10.70;69.80;;;;;;5053874;28;20275;-81
2021/04/21 07:34:02;;;;;;;14.07;11.88;;;10.80;69.50;;;;;;5052136;28;20020;-79
2021/04/21 07:36:28;;;;;;;8.90;7.78;;;10.90;69.50;;;;;;5053563;28;20039;-79
2021/04/21 07:39:06;;;;;;;11.45;9.90;;;11.00;69.30;;;;;;5058786;28;20390;-79
2021/04/21 07:41:36;;;;;;;9.93;8.30;;;11.20;69.00;;;;;;5073497;28;20052;-80
2021/04/21 07:44:02;;;;;;;11.38;8.27;;;11.30;68.90;;;;;;5066829;28;20071;-77
2021/04/21 07:46:29;;;;;;;12.52;9.95;;;11.40;68.80;;;;;;5070493;28;20024;-79
2021/04/21 07:48:55;;;;;;;9.60;8.50;;;11.40;68.50;;;;;;5073193;28;20086;-78
2021/04/21 07:51:27;;;;;;;9.20;7.70;;;11.40;68.50;;;;;;5061412;28;20075;-79
2021/04/21 07:53:58;;;;;;;9.07;7.22;;;11.50;68.50;;;;;;5071974;28;20074;-81
2021/04/21 07:56:28;;;;;;;10.52;8.40;;;11.60;68.30;;;;;;5071244;28;20035;-78
2021/04/21 07:58:54;;;;;;;11.52;8.77;;;11.70;68.20;;;;;;5072003;28;20366;-80
2021/04/21 08:01:33;;;;;;;11.13;9.38;;;11.80;67.90;;;;;;5071431;28;20532;-79
2021/04/21 08:04:22;;;;;;;11.63;9.13;;;11.90;67.80;;;;;;5073296;28;20465;-79
2021/04/21 08:06:49;;;;;;;10.93;8.85;;;11.90;67.60;;;;;;5073292;28;20037;-81
2021/04/21 08:09:17;;;;;;;11.15;9.35;;;12.00;67.60;;;;;;5073145;28;20369;-78
2021/04/21 08:11:43;;;;;;;12.30;9.23;;;12.00;67.50;;;;;;5071755;28;20059;-78
2021/04/21 08:14:09;;;;;;;8.70;7.43;;;12.20;67.40;;;;;;5073136;28;20377;-80
2021/04/21 08:16:36;;;;;;;8.98;7.72;;;12.20;67.20;;;;;;5072522;28;20067;-81
2021/04/21 08:19:18;;;;;;;9.60;8.00;;;12.40;67.00;;;;;;5071779;28;20373;-81
2021/04/21 08:21:45;;;;;;;9.35;7.38;;;12.60;66.70;;;;;;5073136;28;20032;-83
2021/04/21 08:24:16;;;;;;;9.88;7.80;;;12.70;66.40;;;;;;5073303;28;20016;-82
2021/04/21 08:26:43;;;;;;;9.60;8.05;;;12.80;66.10;;;;;;5073077;28;20507;-80
2021/04/21 08:29:11;;;;;;;11.43;8.52;;;12.90;66.00;;;;;;5073027;28;20105;-81
2021/04/21 08:31:38;;;;;;;10.82;9.00;;;13.00;65.60;;;;;;5072566;28;20032;-79
2021/04/21 08:34:05;;;;;;;10.23;8.10;;;13.00;65.40;;;;;;5075888;28;20154;-80
2021/04/21 08:36:31;;;;;;;10.43;8.38;;;13.00;65.30;;;;;;5076981;28;20025;-79
2021/04/21 08:38:57;;;;;;;10.25;7.82;;;13.10;65.20;;;;;;5075691;28;20127;-78
2021/04/21 08:41:23;;;;;;;8.45;6.50;;;13.10;65.20;;;;;;5077074;28;20021;-78
2021/04/21 08:43:50;;;;;;;8.25;6.50;;;13.20;64.90;;;;;;5076897;28;20020;-78
2021/04/21 08:46:18;;;;;;;6.35;5.50;;;13.30;64.80;;;;;;5075114;28;20012;-80
2021/04/21 08:48:45;;;;;;;7.57;5.97;;;13.40;64.80;;;;;;5075527;28;20028;-79
2021/04/21 08:51:16;;;;;;;9.65;7.03;;;13.40;64.70;;;;;;5075392;28;20020;-81
2021/04/21 08:53:47;;;;;;;11.27;8.88;;;13.40;64.50;;;;;;5076922;28;20181;-80
2021/04/21 08:56:15;;;;;;;11.68;8.35;;;13.40;64.40;;;;;;5075299;28;20377;-80
2021/04/21 08:58:41;;;;;;;8.98;7.35;;;13.30;64.30;;;;;;5075425;28;20017;-79
2021/04/21 09:01:10;;;;;;;9.18;6.40;;;13.40;64.40;;;;;;5074658;28;20033;-79
2021/04/21 09:03:36;;;;;;;8.00;6.30;;;13.50;64.30;;;;;;5076575;28;20473;-80
2021/04/21 09:06:04;;;;;;;7.72;6.13;;;13.60;63.90;;;;;;5075117;28;20043;-79
2021/04/21 09:08:30;;;;;;;7.00;5.32;;;13.70;63.70;;;;;;5076278;28;20035;-78
2021/04/21 09:10:56;;;;;;;7.22;5.70;;;13.80;63.40;;;;;;5076145;28;20023;-79
2021/04/21 09:13:22;;;;;;;7.50;5.72;;;13.90;63.20;;;;;;5075952;28;20025;-79
2021/04/21 09:15:48;;;;;;;7.45;5.45;;;14.00;62.90;;;;;;5075078;28;20024;-79
2021/04/21 09:18:22;;;;;;;7.75;6.10;;;14.10;62.60;;;;;;5074554;28;20067;-80
2021/04/21 09:20:48;;;;;;;9.98;5.30;;;14.20;62.10;;;;;;5076244;28;20047;-81
2021/04/21 09:23:14;;;;;;;8.90;7.65;;;14.20;62.10;;;;;;5076002;28;20029;-81
2021/04/21 09:25:41;;;;;;;11.30;6.95;;;14.30;61.80;;;;;;5076087;28;20017;-80
2021/04/21 09:28:08;;;;;;;9.93;7.35;;;14.30;61.20;;;;;;5075654;28;20065;-80
2021/04/21 09:30:36;;;;;;;7.78;6.47;;;14.40;60.90;;;;;;5076072;28;20031;-80
2021/04/21 09:33:02;;;;;;;8.25;6.05;;;14.40;60.80;;;;;;5075819;28;20020;-80
2021/04/21 09:35:30;;;;;;;6.75;5.13;;;14.50;60.70;;;;;;5074638;28;20107;-80
2021/04/21 09:38:15;;;;;;;8.60;6.50;;;14.60;60.50;;;;;;5074737;28;20085;-79
2021/04/21 09:40:44;;;;;;;7.53;5.30;;;14.50;59.80;;;;;;5075927;28;20029;-72
2021/04/21 09:43:27;;;;;;;7.40;5.00;;;14.50;60.00;;;;;;5075417;28;20024;-79
2021/04/21 09:45:58;;;;;;;6.20;4.35;;;14.50;60.00;;;;;;5082641;28;20020;-77
2021/04/21 09:48:37;;;;;;;5.13;4.60;;;14.50;60.00;;;;;;5095721;28;20032;-77
2021/04/21 09:51:05;;;;;;;6.88;5.18;;;14.60;59.80;;;;;;5095723;28;20028;-78
2021/04/21 09:53:35;;;;;;;8.57;5.63;;;14.60;59.40;;;;;;5094599;28;20027;-76
2021/04/21 09:56:19;;;;;;;6.63;4.93;;;14.60;59.10;;;;;;5095520;28;20020;-76
2021/04/21 09:58:49;;;;;;;5.95;4.15;;;14.70;59.00;;;;;;5093997;28;20340;-77
2021/04/21 10:01:17;;;;;;;5.20;3.88;;;14.90;58.90;;;;;;5095467;28;20120;-76
2021/04/21 10:03:43;;;;;;;5.88;4.72;;;14.90;58.80;;;;;;5094230;28;20051;-77
2021/04/21 10:06:21;;;;;;;5.70;3.83;;;15.10;58.80;;;;;;5095409;28;20472;-77
2021/04/21 10:08:48;;;;;;;4.78;3.40;;;15.30;58.60;;;;;;5094305;28;20387;-77
2021/04/21 10:11:14;;;;;;;5.18;3.55;;;15.40;58.60;;;;;;5095426;28;20104;-77
2021/04/21 10:13:45;;;;;;;4.53;3.08;;;15.40;58.50;;;;;;5093711;28;20102;-77
2021/04/21 10:16:12;;;;;;;4.75;3.75;;;15.50;58.50;;;;;;5095190;28;20020;-78
2021/04/21 10:18:38;;;;;;;4.55;3.15;;;15.60;58.50;;;;;;5095096;28;20052;-78
2021/04/21 10:21:05;;;;;;;5.68;3.70;;;15.60;58.50;;;;;;5093902;28;20426;-80
2021/04/21 10:23:31;;;;;;;5.10;3.85;;;15.70;58.40;;;;;;5095134;28;20028;-79
2021/04/21 10:26:08;;;;;;;5.40;4.07;;;15.60;58.50;;;;;;5095614;28;20160;-79
2021/04/21 10:28:37;;;;;;;4.75;3.58;;;15.70;58.50;;;;;;5093721;28;20156;-79
2021/04/21 10:31:04;;;;;;;6.03;4.43;;;15.70;58.40;;;;;;5093837;28;20076;-78
2021/04/21 10:33:31;;;;;;;5.47;4.03;;;15.60;58.60;;;;;;5094789;28;20028;-78
2021/04/21 10:35:57;;;;;;;4.55;3.75;;;15.50;59.00;;;;;;5093271;28;20020;-78
2021/04/21 10:38:25;;;;;;;4.97;3.45;;;15.60;58.80;;;;;;5094904;28;20027;-78
2021/04/21 10:41:04;;;;;;;3.67;3.20;;;15.70;58.50;;;;;;5094318;28;20031;-78
2021/04/21 10:43:40;;;;;;;4.10;3.30;;;15.90;58.40;;;;;;5093468;28;20020;-78
2021/04/21 10:46:08;;;;;;;3.38;2.47;;;16.00;58.10;;;;;;5094683;28;20115;-77
2021/04/21 10:48:37;;;;;;;3.78;2.53;;;16.10;58.20;;;;;;5094502;28;20036;-78
2021/04/21 10:51:03;;;;;;;4.80;3.40;;;16.20;58.00;;;;;;5093395;28;20020;-77
2021/04/21 10:53:28;;;;;;;4.80;3.40;;;16.50;57.70;;;;;;5093558;28;20375;-79
2021/04/21 10:55:54;;;;;;;3.97;3.10;;;16.70;57.30;;;;;;5092428;28;20174;-78
2021/04/21 10:58:19;;;;;;;5.20;4.07;;;16.80;57.20;;;;;;5094264;28;20085;-78
2021/04/21 11:00:50;;;;;;;6.90;5.13;;;17.00;57.00;;;;;;5093725;28;20027;-78
2021/04/21 11:03:26;;;;;;;7.80;6.03;;;16.80;57.20;;;;;;5093628;28;20023;-78
2021/04/21 11:05:59;;;;;;;6.97;4.90;;;16.40;57.80;;;;;;5093000;28;20036;-80
2021/04/21 11:08:30;;;;;;;8.10;6.22;;;16.10;58.60;;;;;;5094122;28;20028;-79
2021/04/21 11:11:03;;;;;;;5.47;3.92;;;16.10;58.90;;;;;;5080615;28;20027;-79
2021/04/21 11:13:34;;;;;;;5.93;4.57;;;16.20;58.70;;;;;;5072713;28;20129;-79
2021/04/21 11:16:08;;;;;;;6.80;5.60;;;16.40;58.30;;;;;;5072850;28;20025;-81
2021/04/21 11:18:39;;;;;;;8.50;6.10;;;16.60;58.00;;;;;;5073717;28;20049;-75
2021/04/21 11:21:09;;;;;;;5.40;4.15;;;16.80;58.10;;;;;;5074250;28;20503;-81
2021/04/21 11:23:56;;;;;;;5.63;4.15;;;17.00;57.50;;;;;;5076796;28;20468;-80
2021/04/21 11:26:28;;;;;;;7.38;4.70;;;17.30;57.30;;;;;;5077565;28;20496;-81
2021/04/21 11:29:02;;;;;;;7.65;5.53;;;17.30;57.00;;;;;;5074782;28;20036;-82
2021/04/21 11:31:48;;;;;;;7.15;4.82;;;17.00;57.20;;;;;;5074634;28;20028;-80
2021/04/21 11:34:28;;;;;;;6.47;4.57;;;16.70;57.80;;;;;;5073969;28;20040;-80
2021/04/21 11:37:03;;;;;;;6.95;5.10;;;16.70;57.80;;;;;;5072638;28;20028;-80
2021/04/21 11:42:40;;;;;;;5.55;3.95;;;17.00;57.40;;;;;;5078114;28;20424;-79
2021/04/21 11:45:14;;;;;;;5.22;4.07;;;17.50;57.00;;;;;;5076533;28;20025;-80
2021/04/21 11:47:53;;;;;;;5.05;3.80;;;17.90;56.00;;;;;;5078674;28;20033;-80
2021/04/21 11:50:21;;;;;;;5.50;3.83;;;17.80;56.10;;;;;;5075218;28;20020;-81
2021/04/21 11:53:10;;;;;;;6.33;3.40;;;17.60;56.30;;;;;;5074968;28;20348;-82
2021/04/21 11:55:39;;;;;;;5.13;3.30;;;17.30;57.00;;;;;;5074956;28;20476;-80
2021/04/21 11:58:16;;;;;;;3.20;2.72;;;17.10;57.40;;;;;;5075367;28;20468;-81
2021/04/21 12:00:51;;;;;;;6.25;3.85;;;17.20;57.00;;;;;;5074833;28;20028;-80
2021/04/21 12:03:18;;;;;;;7.60;4.57;;;17.20;56.80;;;;;;5074672;28;20021;-83
2021/04/21 12:05:45;;;;;;;9.75;6.68;;;17.10;56.70;;;;;;5073253;28;20021;-82
2021/04/21 12:08:11;;;;;;;11.73;8.60;;;16.70;57.20;;;;;;5071391;28;20036;-82
2021/04/21 12:10:38;;;;;;;11.30;8.65;;;16.20;57.70;;;;;;5073345;28;20027;-82
2021/04/21 12:13:19;;;;;;;13.20;9.35;;;15.90;58.50;;;;;;5072507;28;20036;-81
2021/04/21 12:15:46;;;;;;;10.57;8.38;;;15.60;59.00;;;;;;5074192;28;20040;-82
2021/04/21 12:18:34;;;;;;;8.60;6.75;;;15.30;59.40;;;;;;5072659;28;20049;-82
2021/04/21 12:21:06;;;;;;;8.55;6.10;;;15.10;59.60;;;;;;5073149;28;20078;-81
2021/04/21 12:23:35;;;;;;;9.68;7.00;;;15.00;59.80;;;;;;5071903;28;20023;-81
2021/04/21 12:26:03;;;;;;;7.30;5.47;;;15.50;59.20;;;;;;5074807;28;20028;-78
2021/04/21 12:28:42;;;;;;;7.93;5.50;;;16.10;59.00;;;;;;5073437;28;20037;-84
2021/04/21 12:31:08;;;;;;;7.57;5.15;;;16.60;57.40;;;;;;5073315;28;20141;-80
2021/04/21 12:33:34;;;;;;;6.30;4.63;;;16.70;57.30;;;;;;5077621;28;20028;-81
2021/04/21 12:35:59;;;;;;;6.47;4.57;;;17.00;57.10;;;;;;5091484;28;20024;-80
2021/04/21 12:38:35;;;;;;;4.50;3.33;;;17.20;56.80;;;;;;5091352;28;20089;-82
2021/04/21 12:41:03;;;;;;;5.80;3.67;;;17.60;56.60;;;;;;5091648;28;20024;-82
2021/04/21 12:43:31;;;;;;;3.90;3.05;;;18.10;55.60;;;;;;5093239;28;20024;-80
2021/04/21 12:46:20;;;;;;;4.00;3.05;;;18.20;55.60;;;;;;5091660;28;20020;-79
2021/04/21 12:48:48;;;;;;;4.43;3.60;;;18.20;55.60;;;;;;5093175;28;20125;-80
2021/04/21 12:51:31;;;;;;;4.82;3.63;;;18.00;55.90;;;;;;5092679;28;20297;-79
2021/04/21 12:54:02;;;;;;;4.40;3.33;;;17.80;56.40;;;;;;5091835;28;20469;-80
2021/04/21 12:56:35;;;;;;;3.53;2.45;;;17.70;56.80;;;;;;5092304;28;20024;-81
2021/04/21 12:59:12;;;;;;;3.35;2.60;;;18.30;56.10;;;;;;5091701;28;20365;-81
2021/04/21 13:01:38;;;;;;;4.07;2.25;;;18.90;55.00;;;;;;5093784;28;20522;-80
2021/04/21 13:04:04;;;;;;;2.35;2.05;;;18.90;54.70;;;;;;5092576;28;20028;-81
2021/04/21 13:07:10;;;;;;;2.70;1.90;;;18.20;55.50;;;;;;5092309;28;20484;-81
2021/04/21 13:09:35;;;;;;;2.13;1.90;;;17.90;56.50;;;;;;5088581;28;20032;-81
2021/04/21 13:12:02;;;;;;;2.83;2.15;;;17.90;56.50;;;;;;5091585;28;20023;-80
2021/04/21 13:14:36;;;;;;;2.10;1.58;;;18.00;56.00;;;;;;5092418;28;20020;-80
2021/04/21 13:17:03;;;;;;;2.28;2.03;;;18.00;56.60;;;;;;5091499;28;20044;-79
2021/04/21 13:19:33;;;;;;;2.95;2.25;;;18.10;55.60;;;;;;5091619;28;20013;-82
2021/04/21 13:22:04;;;;;;;3.95;2.42;;;17.60;55.70;;;;;;5094596;28;20058;-80